createdAt,value
2022-11-24T00:01:21.333Z,7.23
2022-11-24T00:04:01.859Z,7.24
2022-11-24T00:06:31.401Z,7.21
2022-11-24T00:08:59.386Z,7.22
2022-11-24T00:11:30.425Z,7.19
2022-11-24T00:13:58.933Z,7.17
2022-11-24T00:16:33.482Z,7.18
2022-11-24T00:19:04.140Z,7.16
2022-11-24T00:21:32.830Z,7.08
2022-11-24T00:24:00.500Z,7.03
2022-11-24T00:26:36.688Z,7.01
2022-11-24T00:29:07.709Z,7.02
2022-11-24T00:31:38.581Z,7.06
2022-11-24T00:34:11.584Z,7.03
2022-11-24T00:36:40.473Z,7.04
2022-11-24T00:39:15.849Z,7.02
2022-11-24T00:41:44.358Z,7.03
2022-11-24T00:44:13.556Z,7.03
2022-11-24T00:46:40.832Z,7.00
2022-11-24T00:49:07.877Z,7.00
2022-11-24T00:51:35.103Z,6.98
2022-11-24T00:54:02.446Z,7.00
2022-11-24T00:56:30.675Z,7.01
2022-11-24T00:58:58.299Z,7.01
2022-11-24T01:01:29.062Z,7.01
2022-11-24T01:03:56.610Z,7.05
2022-11-24T01:06:27.749Z,7.03
2022-11-24T01:08:56.025Z,7.01
2022-11-24T01:11:27.673Z,7.01
2022-11-24T01:13:59.285Z,7.02
2022-11-24T01:16:33.054Z,7.06
2022-11-24T01:19:01.549Z,7.10
2022-11-24T01:21:28.694Z,7.05
2022-11-24T01:23:55.555Z,7.03
2022-11-24T01:26:23.511Z,7.06
2022-11-24T01:28:58.363Z,7.03
2022-11-24T01:31:27.188Z,7.05
2022-11-24T01:33:54.620Z,7.08
2022-11-24T01:36:23.194Z,7.08
2022-11-24T01:38:50.889Z,7.10
2022-11-24T01:41:25.323Z,7.12
2022-11-24T01:43:54.468Z,7.10
2022-11-24T01:46:44.877Z,7.05
2022-11-24T01:49:20.823Z,7.08
2022-11-24T01:51:55.812Z,7.09
2022-11-24T01:54:38.574Z,7.11
2022-11-24T01:57:33.594Z,7.06
2022-11-24T02:00:08.341Z,7.05
2022-11-24T02:02:35.698Z,7.00
2022-11-24T02:05:12.241Z,7.02
2022-11-24T02:07:39.702Z,7.02
2022-11-24T02:10:13.286Z,7.03
2022-11-24T02:12:46.329Z,6.98
2022-11-24T02:15:16.827Z,6.94
2022-11-24T02:17:44.232Z,6.91
2022-11-24T02:20:13.349Z,6.90
2022-11-24T02:22:55.037Z,6.88
2022-11-24T02:25:59.208Z,6.89
2022-11-24T02:28:30.769Z,6.85
2022-11-24T02:31:00.922Z,6.82
2022-11-24T02:33:29.221Z,6.80
2022-11-24T02:35:56.081Z,6.77
2022-11-24T02:38:34.951Z,6.73
2022-11-24T02:41:09.067Z,6.73
2022-11-24T02:43:43.335Z,6.76
2022-11-24T02:46:10.926Z,6.80
2022-11-24T02:48:39.135Z,6.79
2022-11-24T02:51:06.331Z,6.83
2022-11-24T02:53:33.517Z,6.87
2022-11-24T02:56:00.429Z,6.88
2022-11-24T02:58:29.786Z,6.90
2022-11-24T03:00:57.364Z,6.93
2022-11-24T03:03:25.746Z,6.91
2022-11-24T03:05:54.131Z,6.93
2022-11-24T03:08:21.379Z,6.92
2022-11-24T03:10:49.134Z,6.92
2022-11-24T03:13:16.228Z,6.95
2022-11-24T03:15:43.204Z,6.90
2022-11-24T03:18:10.500Z,6.89
2022-11-24T03:20:37.445Z,6.88
2022-11-24T03:23:04.538Z,6.81
2022-11-24T03:25:31.473Z,6.74
2022-11-24T03:27:58.634Z,6.72
2022-11-24T03:30:26.112Z,6.72
2022-11-24T03:32:53.870Z,6.68
2022-11-24T03:35:22.418Z,6.58
2022-11-24T03:37:49.608Z,6.59
2022-11-24T03:40:18.045Z,6.58
2022-11-24T03:42:45.181Z,6.57
2022-11-24T03:45:37.957Z,6.59
2022-11-24T03:47:59.215Z,6.58
2022-11-24T03:50:26.380Z,6.59
2022-11-24T03:52:53.537Z,6.59
2022-11-24T03:55:20.473Z,6.62
2022-11-24T03:57:47.972Z,6.68
2022-11-24T04:00:15.795Z,6.72
2022-11-24T04:02:43.155Z,6.75
2022-11-24T04:05:10.464Z,6.79
2022-11-24T04:07:37.629Z,6.81
2022-11-24T04:10:05.719Z,6.84
2022-11-24T04:12:44.860Z,6.87
2022-11-24T04:15:18.826Z,6.86
2022-11-24T04:17:47.974Z,6.87
2022-11-24T04:20:15.589Z,6.84
2022-11-24T04:22:43.318Z,6.86
2022-11-24T04:25:11.271Z,6.82
2022-11-24T04:27:39.342Z,6.66
2022-11-24T04:30:07.654Z,6.61
2022-11-24T04:32:35.355Z,6.62
2022-11-24T04:35:02.619Z,6.61
2022-11-24T04:37:29.751Z,6.51
2022-11-24T04:39:56.683Z,6.45
2022-11-24T04:42:23.815Z,6.36
2022-11-24T04:44:50.591Z,6.26
2022-11-24T04:47:22.322Z,6.14
2022-11-24T04:49:50.009Z,6.15
2022-11-24T04:52:19.604Z,6.14
2022-11-24T04:54:47.862Z,6.11
2022-11-24T04:57:25.053Z,6.11
2022-11-24T04:59:53.283Z,6.09
2022-11-24T05:02:21.333Z,6.06
2022-11-24T05:04:48.317Z,5.97
2022-11-24T05:07:19.133Z,6.03
2022-11-24T05:10:06.440Z,6.03
2022-11-24T05:12:33.805Z,5.97
2022-11-24T05:15:03.908Z,6.01
2022-11-24T05:17:33.497Z,6.07
2022-11-24T05:20:00.797Z,5.85
2022-11-24T05:22:29.993Z,5.91
2022-11-24T05:24:56.927Z,5.94
2022-11-24T05:27:24.356Z,5.97
2022-11-24T05:29:51.190Z,5.94
2022-11-24T05:32:18.328Z,5.95
2022-11-24T05:34:45.268Z,6.01
2022-11-24T05:37:12.437Z,5.99
2022-11-24T05:39:39.279Z,6.02
2022-11-24T05:42:26.722Z,6.02
2022-11-24T05:44:53.961Z,6.02
2022-11-24T05:47:21.955Z,6.01
2022-11-24T05:49:48.769Z,6.03
2022-11-24T05:52:17.245Z,5.94
2022-11-24T05:54:44.054Z,5.93
2022-11-24T05:57:11.146Z,5.87
2022-11-24T05:59:37.900Z,5.79
2022-11-24T06:02:05.116Z,5.88
2022-11-24T06:04:32.622Z,5.88
2022-11-24T06:07:00.309Z,5.93
2022-11-24T06:09:27.243Z,5.96
2022-11-24T06:11:54.561Z,6.00
2022-11-24T06:14:21.451Z,6.05
2022-11-24T06:16:48.600Z,6.08
2022-11-24T06:19:15.431Z,6.18
2022-11-24T06:21:42.556Z,6.22
2022-11-24T06:24:09.422Z,6.20
2022-11-24T06:26:36.489Z,6.27
2022-11-24T06:29:03.611Z,6.30
2022-11-24T06:31:30.761Z,6.32
2022-11-24T06:33:57.998Z,6.32
2022-11-24T06:36:25.607Z,6.36
2022-11-24T06:38:53.245Z,6.37
2022-11-24T06:41:20.633Z,6.38
2022-11-24T06:43:48.035Z,6.34
2022-11-24T06:46:15.333Z,6.29
2022-11-24T06:48:42.252Z,6.23
2022-11-24T06:51:14.792Z,6.21
2022-11-24T06:53:41.952Z,6.24
2022-11-24T06:56:16.278Z,6.21
2022-11-24T06:58:46.691Z,6.18
2022-11-24T07:01:25.826Z,6.23
2022-11-24T07:03:54.879Z,6.25
2022-11-24T07:06:24.526Z,6.26
2022-11-24T07:08:52.021Z,6.26
2022-11-24T07:11:23.612Z,6.30
2022-11-24T07:13:56.476Z,6.31
2022-11-24T07:16:27.003Z,6.32
2022-11-24T07:18:55.323Z,6.30
2022-11-24T07:21:25.036Z,6.29
2022-11-24T07:23:56.902Z,6.28
2022-11-24T07:26:25.310Z,6.27
2022-11-24T07:28:53.611Z,6.29
2022-11-24T07:31:25.036Z,6.26
2022-11-24T07:33:54.755Z,6.24
2022-11-24T07:36:23.897Z,6.24
2022-11-24T07:38:51.585Z,6.25
2022-11-24T07:41:21.207Z,6.20
2022-11-24T07:43:49.003Z,6.23
2022-11-24T07:46:19.352Z,6.29
2022-11-24T07:48:47.261Z,6.32
2022-11-24T07:51:15.911Z,6.37
2022-11-24T07:53:43.205Z,6.40
2022-11-24T07:56:11.319Z,6.44
2022-11-24T07:58:38.566Z,6.48
2022-11-24T08:01:19.154Z,6.52
2022-11-24T08:03:47.359Z,6.50
2022-11-24T08:06:24.414Z,6.52
2022-11-24T08:08:52.309Z,6.56
2022-11-24T08:11:19.566Z,6.59
2022-11-24T08:13:46.915Z,6.62
2022-11-24T08:16:17.675Z,6.64
2022-11-24T08:18:53.221Z,6.66
2022-11-24T08:21:23.339Z,6.70
2022-11-24T08:23:54.021Z,6.74
2022-11-24T08:26:21.217Z,6.77
2022-11-24T08:28:52.533Z,6.80
2022-11-24T08:31:19.828Z,6.81
2022-11-24T08:33:47.088Z,6.85
2022-11-24T08:36:19.167Z,6.88
2022-11-24T08:38:47.236Z,6.90
2022-11-24T08:41:17.257Z,6.87
2022-11-24T08:43:44.840Z,6.90
2022-11-24T08:46:18.885Z,6.90
2022-11-24T08:48:54.612Z,6.89
2022-11-24T08:51:27.593Z,6.89
2022-11-24T08:53:57.271Z,6.93
2022-11-24T08:56:26.897Z,6.94
2022-11-24T08:58:55.663Z,6.90
2022-11-24T09:01:24.538Z,6.92
2022-11-24T09:03:52.287Z,6.94
2022-11-24T09:06:25.205Z,6.87
2022-11-24T09:08:54.665Z,6.94
2022-11-24T09:11:22.516Z,6.98
2022-11-24T09:13:49.890Z,7.00
2022-11-24T09:16:27.677Z,7.06
2022-11-24T09:19:08.069Z,7.09
2022-11-24T09:21:38.685Z,7.16
2022-11-24T09:24:07.833Z,7.20
2022-11-24T09:26:39.778Z,7.25
2022-11-24T09:29:10.881Z,7.27
2022-11-24T09:31:39.609Z,7.27
2022-11-24T09:34:11.124Z,7.25
2022-11-24T09:36:38.244Z,7.23
2022-11-24T09:39:05.461Z,7.24
2022-11-24T09:42:07.516Z,7.23
2022-11-24T09:44:54.789Z,7.25
2022-11-24T09:47:46.886Z,7.29
2022-11-24T09:50:28.135Z,7.32
2022-11-24T09:53:12.583Z,7.35
2022-11-24T09:55:47.265Z,7.37
2022-11-24T09:58:24.455Z,7.39
2022-11-24T10:00:55.022Z,7.42
2022-11-24T10:03:35.370Z,7.45
2022-11-24T10:06:28.515Z,7.47
2022-11-24T10:09:31.945Z,7.52
2022-11-24T10:12:34.539Z,7.55
2022-11-24T10:15:25.716Z,7.59
2022-11-24T10:18:30.548Z,7.59
2022-11-24T10:21:35.420Z,7.60
2022-11-24T10:24:20.485Z,7.61
2022-11-24T10:27:13.534Z,7.60
2022-11-24T10:29:42.656Z,7.61
2022-11-24T10:32:31.414Z,7.63
2022-11-24T10:35:20.081Z,7.67
2022-11-24T10:38:06.388Z,7.71
2022-11-24T10:40:58.188Z,7.76
2022-11-24T10:43:29.413Z,7.79
2022-11-24T10:46:19.771Z,7.84
2022-11-24T10:49:05.154Z,7.84
2022-11-24T10:52:06.051Z,7.90
2022-11-24T10:54:35.954Z,7.95
2022-11-24T10:57:03.876Z,7.95
2022-11-24T10:59:36.947Z,7.96
2022-11-24T11:02:31.706Z,7.96
2022-11-24T11:04:59.556Z,7.91
2022-11-24T11:07:27.022Z,7.95
2022-11-24T11:10:24.324Z,7.97
2022-11-24T11:12:51.395Z,7.99
2022-11-24T11:15:29.665Z,8.02
2022-11-24T11:18:01.453Z,8.05
2022-11-24T11:20:35.128Z,8.06
2022-11-24T11:23:21.556Z,8.08
2022-11-24T11:25:48.739Z,8.10
2022-11-24T11:28:29.884Z,8.10
2022-11-24T11:31:16.519Z,8.10
2022-11-24T11:34:04.580Z,8.15
2022-11-24T11:36:39.610Z,8.18
2022-11-24T11:39:06.820Z,8.22
2022-11-24T11:41:45.902Z,8.26
2022-11-24T11:44:39.970Z,8.30
2022-11-24T11:47:23.304Z,8.33
2022-11-24T11:49:50.788Z,8.38
2022-11-24T11:52:59.223Z,8.42
2022-11-24T11:56:16.625Z,8.46
2022-11-24T11:58:55.752Z,8.49
2022-11-24T12:02:21.945Z,8.56
2022-11-24T12:04:57.797Z,8.61
2022-11-24T12:07:37.064Z,8.62
2022-11-24T12:10:23.403Z,8.65
2022-11-24T12:13:27.753Z,8.64
2022-11-24T12:16:04.023Z,8.68
2022-11-24T12:19:00.303Z,8.70
2022-11-24T12:21:47.407Z,8.69
2022-11-24T12:24:40.524Z,8.69
2022-11-24T12:27:49.895Z,8.70
2022-11-24T12:30:20.695Z,8.72
2022-11-24T12:33:29.513Z,8.73
2022-11-24T12:36:22.569Z,8.73
2022-11-24T12:39:05.368Z,8.73
2022-11-24T12:42:04.398Z,8.70
2022-11-24T12:45:08.529Z,8.68
2022-11-24T12:48:12.138Z,8.67
2022-11-24T12:50:44.575Z,8.64
2022-11-24T12:53:34.925Z,8.64
2022-11-24T12:56:11.003Z,8.63
2022-11-24T12:59:05.824Z,8.65
2022-11-24T13:01:42.159Z,8.70
2022-11-24T13:04:37.585Z,8.69
2022-11-24T13:07:15.006Z,8.71
2022-11-24T13:10:46.983Z,8.73
2022-11-24T13:13:15.416Z,8.79
2022-11-24T13:16:34.715Z,8.83
2022-11-24T13:18:58.832Z,8.88
2022-11-24T13:21:40.995Z,8.89
2022-11-24T13:24:18.281Z,8.88
2022-11-24T13:26:50.474Z,8.89
2022-11-24T13:29:37.767Z,8.92
2022-11-24T13:32:07.573Z,8.93
2022-11-24T13:34:40.842Z,8.96
2022-11-24T13:37:33.912Z,8.98
2022-11-24T13:40:11.856Z,9.02
2022-11-24T13:43:02.998Z,9.07
2022-11-24T13:45:39.313Z,9.09
2022-11-24T13:48:22.440Z,9.09
2022-11-24T13:50:50.125Z,9.07
2022-11-24T13:53:47.688Z,9.06
2022-11-24T13:56:17.577Z,9.04
2022-11-24T13:58:47.919Z,9.04
2022-11-24T14:01:35.479Z,9.08
2022-11-24T14:04:32.878Z,9.09
2022-11-24T14:07:09.083Z,9.11
2022-11-24T14:10:02.793Z,9.12
2022-11-24T14:12:33.712Z,9.16
2022-11-24T14:15:34.237Z,9.13
2022-11-24T14:18:01.334Z,9.14
2022-11-24T14:20:29.410Z,9.15
2022-11-24T14:22:56.598Z,9.16
2022-11-24T14:25:32.029Z,9.18
2022-11-24T14:28:00.678Z,9.19
2022-11-24T14:30:27.766Z,9.19
2022-11-24T14:33:02.132Z,9.20
2022-11-24T14:35:35.120Z,9.20
2022-11-24T14:38:05.824Z,9.23
2022-11-24T14:40:52.547Z,9.25
2022-11-24T14:43:33.119Z,9.24
2022-11-24T14:46:06.274Z,9.25
2022-11-24T14:48:38.951Z,9.25
2022-11-24T14:51:28.125Z,9.24
2022-11-24T14:54:01.110Z,9.26
2022-11-24T14:56:35.687Z,9.24
2022-11-24T14:59:03.551Z,9.25
2022-11-24T15:01:34.618Z,9.27
2022-11-24T15:04:22.047Z,9.28
2022-11-24T15:07:14.380Z,9.29
2022-11-24T15:09:59.330Z,9.30
2022-11-24T15:12:40.788Z,9.31
2022-11-24T15:15:35.235Z,9.31
2022-11-24T15:18:04.992Z,9.32
2022-11-24T15:20:44.769Z,9.33
2022-11-24T15:23:29.619Z,9.32
2022-11-24T15:26:02.922Z,9.33
2022-11-24T15:28:31.526Z,9.33
2022-11-24T15:31:05.456Z,9.32
2022-11-24T15:33:33.180Z,9.33
2022-11-24T15:36:00.678Z,9.33
2022-11-24T15:38:27.591Z,9.31
2022-11-24T15:40:59.163Z,9.30
2022-11-24T15:43:40.995Z,9.31
2022-11-24T15:46:09.446Z,9.33
2022-11-24T15:48:36.628Z,9.31
2022-11-24T15:51:13.898Z,9.33
2022-11-24T15:53:49.912Z,9.33
2022-11-24T15:56:25.897Z,9.33
2022-11-24T15:58:53.198Z,9.35
2022-11-24T16:01:24.544Z,9.35
2022-11-24T16:03:51.407Z,9.36
2022-11-24T16:06:25.314Z,9.37
2022-11-24T16:08:56.540Z,9.39
2022-11-24T16:11:24.006Z,9.40
2022-11-24T16:13:53.341Z,9.41
2022-11-24T16:16:24.706Z,9.39
2022-11-24T16:18:52.044Z,9.42
2022-11-24T16:21:19.185Z,9.42
2022-11-24T16:23:46.673Z,9.43
2022-11-24T16:26:13.877Z,9.43
2022-11-24T16:28:40.777Z,9.43
2022-11-24T16:31:07.922Z,9.45
2022-11-24T16:33:34.856Z,9.46
2022-11-24T16:36:01.961Z,9.47
2022-11-24T16:38:28.849Z,9.48
2022-11-24T16:40:59.354Z,9.48
2022-11-24T16:43:29.279Z,9.48
2022-11-24T16:46:08.736Z,9.49
2022-11-24T16:48:36.687Z,9.50
2022-11-24T16:51:10.172Z,9.49
2022-11-24T16:53:38.125Z,9.49
2022-11-24T16:56:06.486Z,9.47
2022-11-24T16:58:34.138Z,9.47
2022-11-24T17:01:13.085Z,9.45
2022-11-24T17:03:40.577Z,9.46
2022-11-24T17:06:11.875Z,9.46
2022-11-24T17:08:40.538Z,9.46
2022-11-24T17:11:19.379Z,9.45
2022-11-24T17:13:47.563Z,9.46
2022-11-24T17:16:19.633Z,9.44
2022-11-24T17:18:47.713Z,9.47
2022-11-24T17:21:24.300Z,9.46
2022-11-24T17:24:05.205Z,9.44
2022-11-24T17:26:33.882Z,9.47
2022-11-24T17:29:01.078Z,9.46
2022-11-24T17:31:35.733Z,9.45
2022-11-24T17:34:05.692Z,9.46
2022-11-24T17:36:34.789Z,9.45
2022-11-24T17:39:04.765Z,9.44
2022-11-24T17:41:33.205Z,9.44
2022-11-24T17:44:00.124Z,9.44
2022-11-24T17:46:29.494Z,9.45
2022-11-24T17:48:57.832Z,9.43
2022-11-24T17:51:26.915Z,9.44
2022-11-24T17:53:55.595Z,9.44
2022-11-24T17:56:26.320Z,9.44
2022-11-24T17:58:56.342Z,9.46
2022-11-24T18:01:24.358Z,9.47
2022-11-24T18:03:53.655Z,9.48
2022-11-24T18:06:25.055Z,9.44
2022-11-24T18:08:54.287Z,9.43
2022-11-24T18:11:30.999Z,9.40
2022-11-24T18:14:04.048Z,9.39
2022-11-24T18:16:34.425Z,9.41
2022-11-24T18:19:09.789Z,9.39
2022-11-24T18:21:39.930Z,9.37
2022-11-24T18:24:09.045Z,9.36
2022-11-24T18:26:36.420Z,9.33
2022-11-24T18:29:04.282Z,9.32
2022-11-24T18:31:34.180Z,9.30
2022-11-24T18:34:02.864Z,9.32
2022-11-24T18:36:30.894Z,9.32
2022-11-24T18:39:01.856Z,9.31
2022-11-24T18:41:29.162Z,9.29
2022-11-24T18:43:56.163Z,9.30
2022-11-24T18:46:23.414Z,9.27
2022-11-24T18:48:53.001Z,9.24
2022-11-24T18:51:20.269Z,9.23
2022-11-24T18:53:53.413Z,9.14
2022-11-24T18:56:21.372Z,9.16
2022-11-24T18:58:48.297Z,9.13
2022-11-24T19:01:23.110Z,9.07
2022-11-24T19:03:56.494Z,9.05
2022-11-24T19:06:33.968Z,9.02
2022-11-24T19:09:06.071Z,8.98
2022-11-24T19:11:37.407Z,8.99
2022-11-24T19:14:08.447Z,8.99
2022-11-24T19:16:36.224Z,8.95
2022-11-24T19:19:04.070Z,8.97
2022-11-24T19:21:34.285Z,8.94
2022-11-24T19:24:05.241Z,8.96
2022-11-24T19:26:37.365Z,8.97
2022-11-24T19:29:06.660Z,8.95
2022-11-24T19:31:35.570Z,8.92
2022-11-24T19:34:03.612Z,8.90
2022-11-24T19:36:31.552Z,8.88
2022-11-24T19:38:59.656Z,8.89
2022-11-24T19:41:31.993Z,8.85
2022-11-24T19:43:59.780Z,8.85
2022-11-24T19:46:29.796Z,8.82
2022-11-24T19:49:01.204Z,8.84
2022-11-24T19:51:35.392Z,8.81
2022-11-24T19:54:05.057Z,8.82
2022-11-24T19:56:37.336Z,8.80
2022-11-24T19:59:06.823Z,8.80
2022-11-24T20:01:37.579Z,8.79
2022-11-24T20:04:15.541Z,8.77
2022-11-24T20:06:46.322Z,8.74
2022-11-24T20:09:17.019Z,8.72
2022-11-24T20:11:44.964Z,8.67
2022-11-24T20:14:14.504Z,8.63
2022-11-24T20:16:42.292Z,8.60
2022-11-24T20:19:15.852Z,8.57
2022-11-24T20:21:46.491Z,8.51
2022-11-24T20:24:20.678Z,8.47
2022-11-24T20:26:59.023Z,8.46
2022-11-24T20:29:28.379Z,8.45
2022-11-24T20:31:56.821Z,8.43
2022-11-24T20:34:24.272Z,8.39
2022-11-24T20:36:53.121Z,8.36
2022-11-24T20:39:26.195Z,8.34
2022-11-24T20:41:55.887Z,8.28
2022-11-24T20:44:25.979Z,8.22
2022-11-24T20:46:57.059Z,8.17
2022-11-24T20:49:24.002Z,8.13
2022-11-24T20:51:55.003Z,8.05
2022-11-24T20:54:22.187Z,8.01
2022-11-24T20:56:49.777Z,8.00
2022-11-24T20:59:21.665Z,8.00
2022-11-24T21:01:51.303Z,8.01
2022-11-24T21:04:23.261Z,8.02
2022-11-24T21:06:50.896Z,8.05
2022-11-24T21:09:18.402Z,8.05
2022-11-24T21:11:46.103Z,8.06
2022-11-24T21:14:13.922Z,8.06
2022-11-24T21:16:42.924Z,8.05
2022-11-24T21:19:14.126Z,8.08
2022-11-24T21:21:43.082Z,8.08
2022-11-24T21:24:16.461Z,8.11
2022-11-24T21:26:50.464Z,8.13
2022-11-24T21:29:19.486Z,8.11
2022-11-24T21:31:47.062Z,8.13
2022-11-24T21:34:18.431Z,8.13
2022-11-24T21:36:46.204Z,8.13
2022-11-24T21:39:16.695Z,8.12
2022-11-24T21:41:44.715Z,8.10
2022-11-24T21:44:13.545Z,8.11
2022-11-24T21:46:46.072Z,8.08
2022-11-24T21:49:17.003Z,8.11
2022-11-24T21:51:44.026Z,8.14
2022-11-24T21:54:11.119Z,8.17
2022-11-24T21:56:38.212Z,8.14
2022-11-24T21:59:05.374Z,8.17
2022-11-24T22:01:32.231Z,8.18
2022-11-24T22:03:59.492Z,8.20
2022-11-24T22:06:26.355Z,8.22
2022-11-24T22:08:55.260Z,8.21
2022-11-24T22:11:25.042Z,8.24
2022-11-24T22:13:52.795Z,8.23
2022-11-24T22:16:23.380Z,8.24
2022-11-24T22:18:51.605Z,8.23
2022-11-24T22:21:29.882Z,8.23
2022-11-24T22:23:57.514Z,8.21
2022-11-24T22:26:26.167Z,8.18
2022-11-24T22:28:55.418Z,8.19
2022-11-24T22:31:26.616Z,8.18
2022-11-24T22:33:55.683Z,8.18
2022-11-24T22:36:26.485Z,8.18
2022-11-24T22:39:03.294Z,8.18
2022-11-24T22:41:34.028Z,8.18
2022-11-24T22:44:01.282Z,8.20
2022-11-24T22:46:32.019Z,8.21
2022-11-24T22:49:01.732Z,8.23
2022-11-24T22:51:32.571Z,8.24
2022-11-24T22:54:03.404Z,8.28
2022-11-24T22:56:33.601Z,8.29
2022-11-24T22:59:02.590Z,8.29
2022-11-24T23:01:31.729Z,8.28
2022-11-24T23:03:59.060Z,8.27
2022-11-24T23:06:29.199Z,8.28
2022-11-24T23:08:59.105Z,8.26
2022-11-24T23:11:38.100Z,8.27
2022-11-24T23:14:15.149Z,8.27
2022-11-24T23:16:43.472Z,8.26
2022-11-24T23:19:10.905Z,8.26
2022-11-24T23:21:39.287Z,8.27
2022-11-24T23:24:08.829Z,8.29
2022-11-24T23:26:40.216Z,8.30
2022-11-24T23:29:09.772Z,8.32
2022-11-24T23:31:39.825Z,8.33
2022-11-24T23:34:07.351Z,8.33
2022-11-24T23:36:34.274Z,8.31
2022-11-24T23:39:07.187Z,8.30
2022-11-24T23:41:34.776Z,8.30
2022-11-24T23:44:02.094Z,8.31
2022-11-24T23:46:29.399Z,8.33
2022-11-24T23:48:57.412Z,8.32
2022-11-24T23:51:30.989Z,8.30
2022-11-24T23:54:00.073Z,8.26
2022-11-24T23:56:33.880Z,8.23
2022-11-24T23:59:03.907Z,8.20
